createdAt,value
2019-02-23T00:01:30.970Z,10.30
2019-02-23T00:03:58.286Z,9.77
2019-02-23T00:06:29.796Z,14.07
2019-02-23T00:08:54.609Z,10.10
2019-02-23T00:11:23.429Z,8.07
2019-02-23T00:13:50.671Z,9.70
2019-02-23T00:16:17.949Z,10.20
2019-02-23T00:18:45.200Z,10.97
2019-02-23T00:21:12.482Z,10.37
2019-02-23T00:23:39.768Z,9.97
2019-02-23T00:26:07.260Z,11.03
2019-02-23T00:28:34.585Z,13.00
2019-02-23T00:31:01.854Z,11.83
2019-02-23T00:33:29.101Z,11.97
2019-02-23T00:35:56.385Z,11.97
2019-02-23T00:38:23.671Z,12.70
2019-02-23T00:40:50.923Z,11.90
2019-02-23T00:43:18.190Z,11.60
2019-02-23T00:45:45.705Z,12.13
2019-02-23T00:48:12.986Z,18.33
2019-02-23T00:50:40.241Z,14.60
2019-02-23T00:53:07.523Z,15.00
2019-02-23T00:55:34.801Z,16.87
2019-02-23T00:58:02.052Z,15.40
2019-02-23T01:00:29.331Z,14.47
2019-02-23T01:02:56.573Z,12.30
2019-02-23T01:05:23.845Z,13.60
2019-02-23T01:07:51.099Z,13.50
2019-02-23T01:10:19.531Z,14.80
2019-02-23T01:12:47.051Z,16.53
2019-02-23T01:15:14.322Z,17.43
2019-02-23T01:17:41.854Z,18.07
2019-02-23T01:20:09.777Z,15.57
2019-02-23T01:22:37.056Z,16.20
2019-02-23T01:25:05.256Z,16.50
2019-02-23T01:27:32.505Z,15.60
2019-02-23T01:29:59.796Z,14.00
2019-02-23T01:32:27.090Z,17.27
2019-02-23T01:34:54.348Z,17.27
2019-02-23T01:37:21.589Z,14.67
2019-02-23T01:39:48.878Z,15.57
2019-02-23T01:42:16.130Z,16.27
2019-02-23T01:44:43.403Z,16.67
2019-02-23T01:47:10.945Z,16.53
2019-02-23T01:49:38.193Z,16.63
2019-02-23T01:52:05.462Z,18.00
2019-02-23T01:54:32.723Z,20.53
2019-02-23T01:56:59.994Z,17.67
2019-02-23T01:59:27.274Z,20.27
2019-02-23T02:01:54.526Z,19.63
2019-02-23T02:04:21.814Z,19.17
2019-02-23T02:06:49.318Z,19.53
2019-02-23T02:09:16.682Z,18.80
2019-02-23T02:11:43.997Z,20.00
2019-02-23T02:14:11.512Z,15.47
2019-02-23T02:16:38.796Z,17.93
2019-02-23T02:19:06.042Z,18.70
2019-02-23T02:21:33.328Z,17.70
2019-02-23T02:24:00.687Z,15.50
2019-02-23T02:26:27.941Z,19.23
2019-02-23T02:28:55.218Z,18.17
2019-02-23T02:31:22.477Z,21.27
2019-02-23T02:34:08.610Z,16.13
2019-02-23T02:36:35.855Z,18.13
2019-02-23T02:39:04.577Z,19.73
2019-02-23T02:41:32.123Z,16.77
2019-02-23T02:43:59.634Z,17.97
2019-02-23T02:46:26.888Z,17.10
2019-02-23T02:48:54.164Z,19.30
2019-02-23T02:51:21.460Z,18.50
2019-02-23T02:53:48.709Z,16.00
2019-02-23T02:56:15.988Z,17.93
2019-02-23T02:58:43.322Z,16.73
2019-02-23T03:01:10.598Z,17.20
2019-02-23T03:03:37.886Z,17.90
2019-02-23T03:06:05.145Z,14.97
2019-02-23T03:08:32.473Z,18.53
2019-02-23T03:10:59.749Z,18.47
2019-02-23T03:13:27.030Z,19.80
2019-02-23T03:15:54.534Z,19.87
2019-02-23T03:18:21.826Z,19.50
2019-02-23T03:20:49.339Z,18.20
2019-02-23T03:23:16.706Z,16.77
2019-02-23T03:25:43.990Z,18.97
2019-02-23T03:28:11.241Z,16.80
2019-02-23T03:30:38.512Z,16.47
2019-02-23T03:33:06.192Z,20.50
2019-02-23T03:35:33.568Z,18.53
2019-02-23T03:38:01.270Z,17.37
2019-02-23T03:40:28.546Z,17.23
2019-02-23T03:42:55.920Z,19.37
2019-02-23T03:45:23.193Z,20.20
2019-02-23T03:47:50.740Z,24.00
2019-02-23T03:50:18.254Z,20.27
2019-02-23T03:52:45.545Z,21.83
2019-02-23T03:55:12.825Z,18.90
2019-02-23T03:57:40.338Z,22.80
2019-02-23T04:00:08.882Z,20.50
2019-02-23T04:02:36.394Z,21.07
2019-02-23T04:05:04.346Z,23.47
2019-02-23T04:07:31.598Z,20.97
2019-02-23T04:09:59.129Z,22.77
2019-02-23T04:12:26.645Z,22.40
2019-02-23T04:14:53.990Z,23.53
2019-02-23T04:17:21.497Z,20.37
2019-02-23T04:19:48.780Z,20.30
2019-02-23T04:22:16.021Z,19.87
2019-02-23T04:24:43.555Z,24.30
2019-02-23T04:27:10.829Z,24.63
2019-02-23T04:29:38.185Z,19.63
2019-02-23T04:32:05.522Z,22.00
2019-02-23T04:34:32.776Z,19.10
2019-02-23T04:37:00.072Z,20.07
2019-02-23T04:39:27.315Z,23.10
2019-02-23T04:41:54.776Z,22.60
2019-02-23T04:44:22.027Z,21.67
2019-02-23T04:46:49.301Z,21.33
2019-02-23T04:49:16.592Z,21.43
2019-02-23T04:51:43.879Z,19.67
2019-02-23T04:54:11.130Z,21.10
2019-02-23T04:56:38.405Z,24.10
2019-02-23T04:59:05.738Z,22.10
2019-02-23T05:01:33.060Z,23.40
2019-02-23T05:04:00.420Z,25.03
2019-02-23T05:06:27.670Z,23.73
2019-02-23T05:08:54.943Z,21.13
2019-02-23T05:11:22.225Z,25.60
2019-02-23T05:13:49.509Z,25.77
2019-02-23T05:16:16.764Z,21.97
2019-02-23T05:18:44.047Z,28.30
2019-02-23T05:21:11.358Z,27.43
2019-02-23T05:23:38.941Z,25.90
2019-02-23T05:26:06.479Z,25.60
2019-02-23T05:28:33.769Z,25.97
2019-02-23T05:31:01.013Z,26.97
2019-02-23T05:33:28.274Z,26.57
2019-02-23T05:35:55.540Z,24.67
2019-02-23T05:38:22.796Z,34.03
2019-02-23T05:40:50.070Z,23.97
2019-02-23T05:43:17.352Z,22.87
2019-02-23T05:45:44.601Z,26.67
2019-02-23T05:48:11.876Z,22.67
2019-02-23T05:50:39.136Z,25.13
2019-02-23T05:53:06.427Z,24.40
2019-02-23T05:55:33.753Z,27.53
2019-02-23T05:58:01.030Z,26.50
2019-02-23T06:00:28.332Z,24.87
2019-02-23T06:02:55.582Z,24.60
2019-02-23T06:05:22.834Z,27.07
2019-02-23T06:07:50.119Z,27.33
2019-02-23T06:10:17.375Z,26.10
2019-02-23T06:12:44.652Z,25.60
2019-02-23T06:15:12.172Z,28.20
2019-02-23T06:17:39.449Z,26.00
2019-02-23T06:20:07.484Z,28.63
2019-02-23T06:22:34.761Z,27.40
2019-02-23T06:25:02.037Z,28.17
2019-02-23T06:27:29.374Z,26.90
2019-02-23T06:29:56.632Z,27.90
2019-02-23T06:32:23.909Z,29.33
2019-02-23T06:34:51.425Z,28.90
2019-02-23T06:37:18.662Z,25.37
2019-02-23T06:39:45.952Z,25.40
2019-02-23T06:42:13.199Z,29.63
2019-02-23T06:44:40.461Z,30.27
2019-02-23T06:47:07.715Z,30.80
2019-02-23T06:49:35.002Z,30.17
2019-02-23T06:52:04.548Z,26.67
2019-02-23T06:54:31.217Z,28.50
2019-02-23T06:56:58.495Z,25.27
2019-02-23T06:59:25.819Z,30.53
2019-02-23T07:01:53.357Z,28.23
2019-02-23T07:04:20.610Z,28.73
2019-02-23T07:06:47.872Z,29.03
2019-02-23T07:09:15.155Z,26.47
2019-02-23T07:11:42.412Z,31.27
2019-02-23T07:14:09.748Z,29.07
2019-02-23T07:16:37.031Z,26.53
2019-02-23T07:19:04.287Z,29.40
2019-02-23T07:21:31.613Z,25.93
2019-02-23T07:23:58.851Z,27.90
2019-02-23T07:26:26.402Z,26.00
2019-02-23T07:28:53.752Z,27.10
2019-02-23T07:31:21.066Z,25.83
2019-02-23T07:33:48.358Z,28.33
2019-02-23T07:36:15.614Z,28.63
2019-02-23T07:38:42.974Z,27.43
2019-02-23T07:41:10.231Z,26.33
2019-02-23T07:43:37.780Z,28.50
2019-02-23T07:46:05.030Z,28.27
2019-02-23T07:48:32.309Z,27.93
2019-02-23T07:50:59.568Z,27.30
2019-02-23T07:53:26.852Z,28.50
2019-02-23T07:55:54.111Z,26.53
2019-02-23T07:58:21.362Z,26.30
2019-02-23T08:00:48.906Z,27.30
2019-02-23T08:03:16.168Z,25.27
2019-02-23T08:05:43.450Z,30.40
2019-02-23T08:08:10.766Z,27.23
2019-02-23T08:10:38.026Z,25.57
2019-02-23T08:13:05.396Z,26.37
2019-02-23T08:15:32.739Z,27.93
2019-02-23T08:17:59.989Z,28.97
2019-02-23T08:20:27.524Z,26.47
2019-02-23T08:22:54.779Z,27.83
2019-02-23T08:25:22.067Z,27.80
2019-02-23T08:27:49.316Z,27.30
2019-02-23T08:30:16.838Z,28.23
2019-02-23T08:32:44.363Z,22.57
2019-02-23T08:35:11.906Z,24.50
2019-02-23T08:37:39.280Z,32.97
2019-02-23T08:40:10.782Z,26.83
2019-02-23T08:42:38.062Z,23.70
2019-02-23T08:45:06.586Z,35.10
2019-02-23T08:47:33.877Z,26.10
2019-02-23T08:50:01.123Z,28.23
2019-02-23T08:52:28.385Z,24.90
2019-02-23T08:54:55.658Z,24.90
2019-02-23T08:57:23.210Z,25.17
2019-02-23T08:59:50.471Z,26.10
2019-02-23T09:02:17.752Z,25.77
2019-02-23T09:04:44.999Z,23.47
2019-02-23T09:07:12.286Z,25.93
2019-02-23T09:09:39.833Z,27.10
2019-02-23T09:12:07.170Z,29.63
2019-02-23T09:14:34.446Z,26.60
2019-02-23T09:17:01.727Z,30.43
2019-02-23T09:19:29.231Z,25.57
2019-02-23T09:21:56.514Z,21.27
2019-02-23T09:24:23.798Z,21.00
2019-02-23T09:26:51.055Z,29.60
2019-02-23T09:29:18.334Z,21.87
2019-02-23T09:31:45.889Z,22.83
2019-02-23T09:34:13.210Z,22.53
2019-02-23T09:36:40.538Z,24.43
2019-02-23T09:39:08.058Z,23.60
2019-02-23T09:41:35.310Z,21.93
2019-02-23T09:44:02.591Z,25.57
2019-02-23T09:46:29.869Z,21.13
2019-02-23T09:48:57.435Z,23.20
2019-02-23T09:51:24.686Z,25.33
2019-02-23T09:53:51.972Z,23.60
2019-02-23T09:56:19.227Z,22.77
2019-02-23T09:58:46.512Z,23.33
2019-02-23T10:01:13.777Z,19.23
2019-02-23T10:03:41.024Z,23.30
2019-02-23T10:06:08.302Z,20.80
2019-02-23T10:08:35.647Z,21.90
2019-02-23T10:11:02.951Z,24.87
2019-02-23T10:13:30.194Z,21.03
2019-02-23T10:15:57.443Z,20.23
2019-02-23T10:18:24.726Z,17.90
2019-02-23T10:20:52.225Z,22.30
2019-02-23T10:23:22.324Z,32.17
2019-02-23T10:25:48.743Z,25.13
2019-02-23T10:28:16.025Z,23.53
2019-02-23T10:30:43.333Z,19.63
2019-02-23T10:33:10.612Z,18.47
2019-02-23T10:35:38.131Z,20.53
2019-02-23T10:38:05.683Z,19.80
2019-02-23T10:40:32.961Z,25.80
2019-02-23T10:43:00.462Z,18.00
2019-02-23T10:45:27.839Z,20.03
2019-02-23T10:47:55.090Z,17.93
2019-02-23T10:50:22.614Z,17.80
2019-02-23T10:52:49.893Z,17.50
2019-02-23T10:55:17.149Z,17.90
2019-02-23T10:57:44.432Z,17.07
2019-02-23T11:00:19.418Z,17.97
2019-02-23T11:02:46.702Z,15.67
2019-02-23T11:05:14.062Z,17.83
2019-02-23T11:07:41.315Z,18.17
2019-02-23T11:10:09.303Z,15.83
2019-02-23T11:12:36.837Z,15.03
2019-02-23T11:15:04.858Z,21.20
2019-02-23T11:17:32.383Z,18.20
2019-02-23T11:19:59.635Z,16.73
2019-02-23T11:22:27.163Z,15.20
2019-02-23T11:24:54.414Z,16.63
2019-02-23T11:27:21.761Z,16.90
2019-02-23T11:29:49.015Z,16.20
2019-02-23T11:32:16.293Z,17.37
2019-02-23T11:34:43.578Z,20.30
2019-02-23T11:37:10.835Z,19.53
2019-02-23T11:39:38.201Z,16.57
2019-02-23T11:42:05.441Z,17.20
2019-02-23T11:44:32.978Z,16.87
2019-02-23T11:47:00.549Z,18.73
2019-02-23T11:49:28.219Z,14.80
2019-02-23T11:51:55.480Z,17.70
2019-02-23T11:54:23.016Z,17.10
2019-02-23T11:56:50.518Z,17.67
2019-02-23T11:59:17.802Z,15.17
2019-02-23T12:01:45.054Z,14.70
2019-02-23T12:04:12.314Z,16.33
2019-02-23T12:06:39.590Z,16.97
2019-02-23T12:09:06.943Z,17.33
2019-02-23T12:11:34.445Z,17.13
2019-02-23T12:14:01.735Z,16.37
2019-02-23T12:16:28.990Z,15.30
2019-02-23T12:18:56.241Z,14.40
2019-02-23T12:21:23.529Z,14.60
2019-02-23T12:23:50.782Z,14.37
2019-02-23T12:26:18.053Z,15.67
2019-02-23T12:28:45.390Z,14.23
2019-02-23T12:31:12.665Z,15.73
2019-02-23T12:33:39.921Z,18.97
2019-02-23T12:36:07.215Z,23.33
2019-02-23T12:38:34.457Z,26.30
2019-02-23T12:41:01.971Z,20.17
2019-02-23T12:43:29.246Z,25.30
2019-02-23T12:45:56.530Z,14.60
2019-02-23T12:48:23.783Z,16.43
2019-02-23T12:50:51.063Z,15.20
2019-02-23T12:53:18.317Z,19.10
2019-02-23T12:55:45.599Z,15.03
2019-02-23T12:58:12.887Z,14.13
2019-02-23T13:00:40.206Z,19.80
2019-02-23T13:03:07.485Z,18.10
2019-02-23T13:05:34.993Z,26.90
2019-02-23T13:08:02.282Z,29.00
2019-02-23T13:10:29.570Z,19.30
2019-02-23T13:13:04.265Z,15.57
2019-02-23T13:15:33.079Z,32.03
2019-02-23T13:18:01.897Z,17.20
2019-02-23T13:20:36.598Z,30.23
2019-02-23T13:23:21.640Z,18.73
2019-02-23T13:25:59.430Z,18.20
2019-02-23T13:28:28.253Z,18.17
2019-02-23T13:30:57.039Z,19.33
2019-02-23T13:33:34.664Z,17.23
2019-02-23T13:36:03.475Z,18.37
2019-02-23T13:38:35.183Z,16.47
2019-02-23T13:41:09.814Z,15.67
2019-02-23T13:43:41.549Z,16.50
2019-02-23T13:46:16.109Z,15.23
2019-02-23T13:48:53.742Z,21.70
2019-02-23T13:51:34.598Z,17.33
2019-02-23T13:54:19.747Z,17.40
2019-02-23T13:56:51.702Z,21.30
2019-02-23T13:59:35.602Z,18.00
2019-02-23T14:02:07.012Z,19.00
2019-02-23T14:04:35.797Z,16.80
2019-02-23T14:07:04.616Z,16.67
2019-02-23T14:09:33.656Z,17.70
2019-02-23T14:12:05.153Z,14.00
2019-02-23T14:14:34.206Z,20.03
2019-02-23T14:17:17.944Z,20.53
2019-02-23T14:19:46.763Z,14.57
2019-02-23T14:22:24.252Z,18.10
2019-02-23T14:25:02.286Z,15.00
2019-02-23T14:27:33.725Z,14.50
2019-02-23T14:30:18.804Z,14.30
2019-02-23T14:32:47.869Z,17.73
2019-02-23T14:35:25.582Z,16.60
2019-02-23T14:38:00.302Z,15.63
2019-02-23T14:40:29.205Z,18.40
2019-02-23T14:42:58.122Z,17.63
2019-02-23T14:45:27.777Z,31.33
2019-02-23T14:47:56.840Z,23.83
2019-02-23T14:50:28.518Z,30.20
2019-02-23T14:53:09.397Z,19.47
2019-02-23T14:55:39.897Z,18.50
2019-02-23T14:58:08.820Z,26.17
2019-02-23T15:00:40.537Z,18.40
2019-02-23T15:03:09.646Z,12.97
2019-02-23T15:05:38.466Z,14.17
2019-02-23T15:08:12.929Z,13.43
2019-02-23T15:10:59.847Z,15.30
2019-02-23T15:13:28.630Z,14.00
2019-02-23T15:16:03.139Z,18.33
2019-02-23T15:18:32.207Z,13.37
2019-02-23T15:21:02.009Z,12.30
2019-02-23T15:23:36.490Z,12.40
2019-02-23T15:26:14.054Z,13.50
2019-02-23T15:28:59.406Z,12.50
2019-02-23T15:31:37.409Z,28.30
2019-02-23T15:34:11.879Z,35.30
2019-02-23T15:36:40.670Z,20.40
2019-02-23T15:39:27.622Z,13.93
2019-02-23T15:42:02.142Z,13.77
2019-02-23T15:44:47.584Z,13.30
2019-02-23T15:47:19.450Z,13.63
2019-02-23T15:49:46.725Z,11.97
2019-02-23T15:52:14.275Z,13.20
2019-02-23T15:54:41.550Z,15.40
2019-02-23T15:57:09.093Z,12.80
2019-02-23T15:59:36.379Z,14.70
2019-02-23T16:02:03.654Z,12.60
2019-02-23T16:04:30.906Z,16.00
2019-02-23T16:06:58.158Z,10.80
2019-02-23T16:09:25.429Z,14.90
2019-02-23T16:11:52.669Z,11.63
2019-02-23T16:14:19.957Z,11.63
2019-02-23T16:16:47.645Z,17.23
2019-02-23T16:19:15.083Z,14.53
2019-02-23T16:21:42.434Z,12.50
2019-02-23T16:24:09.703Z,12.30
2019-02-23T16:26:36.983Z,11.47
2019-02-23T16:29:04.253Z,9.80
2019-02-23T16:31:31.503Z,12.37
2019-02-23T16:33:58.812Z,11.57
2019-02-23T16:36:26.103Z,10.80
2019-02-23T16:38:53.383Z,13.10
2019-02-23T16:41:20.894Z,12.73
2019-02-23T16:43:48.188Z,17.97
2019-02-23T16:46:15.690Z,13.40
2019-02-23T16:48:42.942Z,13.93
2019-02-23T16:51:10.299Z,13.13
2019-02-23T16:53:37.826Z,38.10
2019-02-23T16:56:05.463Z,33.80
2019-02-23T16:58:33.012Z,24.57
2019-02-23T17:01:00.575Z,20.87
2019-02-23T17:03:27.869Z,20.23
2019-02-23T17:05:55.124Z,15.70
2019-02-23T17:08:22.370Z,15.67
2019-02-23T17:10:49.895Z,14.60
2019-02-23T17:13:17.404Z,12.70
2019-02-23T17:15:44.677Z,15.07
2019-02-23T17:18:11.967Z,15.10
2019-02-23T17:20:39.233Z,12.03
2019-02-23T17:23:06.484Z,12.80
2019-02-23T17:25:33.758Z,14.60
2019-02-23T17:28:01.279Z,12.60
2019-02-23T17:30:28.818Z,14.80
2019-02-23T17:32:56.066Z,15.17
2019-02-23T17:35:23.578Z,11.03
2019-02-23T17:37:50.929Z,11.27
2019-02-23T17:40:18.206Z,11.90
2019-02-23T17:42:45.474Z,11.20
2019-02-23T17:45:12.746Z,13.07
2019-02-23T17:47:39.993Z,11.37
2019-02-23T17:50:08.239Z,10.87
2019-02-23T17:52:35.489Z,11.47
2019-02-23T17:55:02.950Z,10.80
2019-02-23T17:57:30.192Z,9.40
2019-02-23T17:59:57.440Z,10.90
2019-02-23T18:02:24.850Z,10.50
2019-02-23T18:04:52.095Z,8.93
2019-02-23T18:07:19.464Z,11.13
2019-02-23T18:09:46.737Z,9.40
2019-02-23T18:12:13.978Z,13.10
2019-02-23T18:14:41.267Z,17.90
2019-02-23T18:17:08.616Z,13.13
2019-02-23T18:19:35.947Z,15.90
2019-02-23T18:22:03.314Z,13.70
2019-02-23T18:24:30.565Z,12.00
2019-02-23T18:26:57.841Z,9.73
2019-02-23T18:29:25.118Z,14.30
2019-02-23T18:31:52.379Z,11.47
2019-02-23T18:34:19.730Z,10.83
2019-02-23T18:36:46.975Z,11.40
2019-02-23T18:39:14.250Z,11.57
2019-02-23T18:41:41.497Z,14.00
2019-02-23T18:44:09.045Z,11.30
2019-02-23T18:46:36.337Z,14.83
2019-02-23T18:49:03.587Z,17.47
2019-02-23T18:51:30.868Z,17.30
2019-02-23T18:53:58.142Z,16.17
2019-02-23T18:56:29.654Z,21.53
2019-02-23T18:58:54.393Z,16.23
2019-02-23T19:01:21.645Z,21.80
2019-02-23T19:03:48.904Z,18.67
2019-02-23T19:06:16.218Z,12.63
2019-02-23T19:08:43.760Z,18.87
2019-02-23T19:11:11.014Z,20.80
2019-02-23T19:13:38.556Z,13.13
2019-02-23T19:16:06.142Z,20.93
2019-02-23T19:18:33.686Z,17.63
2019-02-23T19:21:00.940Z,14.60
2019-02-23T19:23:28.491Z,19.40
2019-02-23T19:25:55.998Z,18.17
2019-02-23T19:28:23.527Z,21.13
2019-02-23T19:30:50.797Z,27.57
2019-02-23T19:33:18.350Z,17.40
2019-02-23T19:35:45.634Z,16.93
2019-02-23T19:38:12.906Z,18.93
2019-02-23T19:40:40.238Z,15.83
2019-02-23T19:43:07.780Z,17.07
2019-02-23T19:45:35.058Z,14.60
2019-02-23T19:48:02.345Z,20.33
2019-02-23T19:50:36.948Z,16.17
2019-02-23T19:53:04.237Z,18.80
2019-02-23T19:55:31.478Z,16.50
2019-02-23T19:57:59.010Z,15.20
2019-02-23T20:00:26.266Z,15.23
2019-02-23T20:02:53.545Z,16.87
2019-02-23T20:05:21.068Z,16.40
2019-02-23T20:07:48.318Z,15.90
2019-02-23T20:10:15.598Z,15.53
2019-02-23T20:12:42.851Z,16.00
2019-02-23T20:15:10.562Z,20.30
2019-02-23T20:17:37.842Z,15.30
2019-02-23T20:20:05.282Z,13.07
2019-02-23T20:22:32.561Z,15.07
2019-02-23T20:25:00.120Z,20.80
2019-02-23T20:27:27.439Z,15.87
2019-02-23T20:29:54.691Z,12.60
2019-02-23T20:32:22.046Z,12.23
2019-02-23T20:34:49.574Z,14.40
2019-02-23T20:37:16.829Z,16.67
2019-02-23T20:39:44.107Z,14.00
2019-02-23T20:42:11.382Z,13.50
2019-02-23T20:44:38.661Z,13.23
2019-02-23T20:47:06.047Z,12.63
2019-02-23T20:49:33.353Z,14.17
2019-02-23T20:52:00.638Z,13.27
2019-02-23T20:54:27.901Z,16.80
2019-02-23T20:57:03.870Z,12.37
2019-02-23T20:59:24.700Z,13.37
2019-02-23T21:01:51.980Z,12.60
2019-02-23T21:04:19.235Z,17.03
2019-02-23T21:06:46.975Z,13.77
2019-02-23T21:09:14.326Z,13.97
2019-02-23T21:11:41.862Z,17.47
2019-02-23T21:14:09.141Z,17.73
2019-02-23T21:16:36.644Z,13.90
2019-02-23T21:19:05.563Z,14.37
2019-02-23T21:21:32.999Z,16.27
2019-02-23T21:24:00.253Z,13.23
2019-02-23T21:26:27.579Z,11.20
2019-02-23T21:28:54.828Z,12.23
2019-02-23T21:31:22.114Z,13.90
2019-02-23T21:33:49.629Z,10.67
2019-02-23T21:36:17.166Z,14.43
2019-02-23T21:38:44.434Z,14.93
2019-02-23T21:41:11.703Z,11.10
2019-02-23T21:43:39.233Z,12.80
2019-02-23T21:46:06.475Z,11.63
2019-02-23T21:48:33.760Z,13.03
2019-02-23T21:51:01.148Z,13.67
2019-02-23T21:53:28.423Z,11.03
2019-02-23T21:55:55.928Z,12.60
2019-02-23T21:58:23.370Z,12.10
2019-02-23T22:00:50.707Z,12.43
2019-02-23T22:03:18.059Z,12.90
2019-02-23T22:05:45.414Z,18.17
2019-02-23T22:08:12.919Z,12.80
2019-02-23T22:10:40.447Z,11.73
2019-02-23T22:13:08.025Z,12.87
2019-02-23T22:15:35.613Z,11.53
2019-02-23T22:18:03.150Z,12.03
2019-02-23T22:20:30.490Z,10.80
2019-02-23T22:22:57.749Z,12.07
2019-02-23T22:25:25.025Z,11.57
2019-02-23T22:27:52.297Z,12.00
2019-02-23T22:30:19.669Z,11.40
2019-02-23T22:32:47.208Z,9.50
2019-02-23T22:35:14.498Z,11.63
2019-02-23T22:37:42.110Z,9.20
2019-02-23T22:40:09.358Z,11.97
2019-02-23T22:42:36.640Z,11.30
2019-02-23T22:45:04.997Z,13.57
2019-02-23T22:47:32.583Z,12.47
2019-02-23T22:49:59.855Z,12.80
2019-02-23T22:52:27.134Z,11.00
2019-02-23T22:54:54.649Z,12.97
2019-02-23T22:57:21.933Z,10.90
2019-02-23T22:59:49.205Z,11.20
2019-02-23T23:02:16.809Z,8.93
2019-02-23T23:04:44.092Z,8.90
2019-02-23T23:07:11.344Z,13.90
2019-02-23T23:09:39.363Z,13.43
2019-02-23T23:12:06.923Z,13.40
2019-02-23T23:14:34.438Z,21.67
2019-02-23T23:17:01.718Z,17.30
2019-02-23T23:19:29.082Z,22.77
2019-02-23T23:21:56.606Z,15.10
2019-02-23T23:24:23.970Z,20.40
2019-02-23T23:26:51.659Z,15.70
2019-02-23T23:29:18.906Z,13.60
2019-02-23T23:31:46.182Z,12.80
2019-02-23T23:34:13.718Z,13.20
2019-02-23T23:36:40.994Z,12.90
2019-02-23T23:39:08.454Z,11.83
2019-02-23T23:41:35.981Z,12.80
2019-02-23T23:44:03.267Z,10.80
2019-02-23T23:46:30.507Z,8.80
2019-02-23T23:48:57.788Z,10.23
2019-02-23T23:51:25.098Z,9.63
2019-02-23T23:53:52.388Z,11.37
2019-02-23T23:56:19.634Z,10.33
2019-02-23T23:58:46.879Z,10.50
